Prague, Nebraska
Current Conditions -  °F | °C
As of 7:35 AM on Saturday 20 Dec 2014 (Local Time) from KAHQ Reporting Station
Haze Haze  
Wind Chill: 32°   Ceiling: 200
Heat Index: 32°   Visibility: 1.5mi
Dew Point: 31°   Wind: 3mph
Humidity: 95%   Direction: 150°SSE
Pressure: 30.1"   Gusts: NA
Location:  41.31°N, 96.81°W
Report Text: KAHQ 201335Z AUTO 15003KT 1 1/2SM BR OVC002 00/M01 A3010 RMK AO2 T00001007
Loading
Personal Weather Stations






























Interactive Weather Map New forecast layout! Learn more

10-Day Weather Forecast

Advertisements
Track Severe Weather on mobile